Helton, Kentucky
Current Conditions -  °F | °C
As of 10:35 PM on Saturday 24 Jan 2015 (Local Time) from KI35 Reporting Station
Clear Clear  
Wind Chill: 26°   Ceiling: Unl
Heat Index: 34°   Visibility: 10mi
Dew Point: 28°   Wind: 9mph
Humidity: 81%   Direction: 100°E
Pressure: 29.88"   Gusts: NA
Location:  36.95°N, 83.39°W
Report Text: KI35 250335Z AUTO 10008KT 10SM CLR 01/M02 A2988 RMK AO1
Loading
Personal Weather Stations






























Interactive Weather Map New forecast layout! Learn more

10-Day Weather Forecast

Advertisements
Track Severe Weather on mobile